createdAt,value
2017-08-11T00:01:47.983Z,18.10
2017-08-11T00:04:15.493Z,19.07
2017-08-11T00:06:44.135Z,17.20
2017-08-11T00:09:11.652Z,19.12
2017-08-11T00:11:39.345Z,18.70
2017-08-11T00:14:06.862Z,16.58
2017-08-11T00:16:35.227Z,19.33
2017-08-11T00:19:03.505Z,17.83
2017-08-11T00:21:31.300Z,16.80
2017-08-11T00:23:59.070Z,16.02
2017-08-11T00:26:26.579Z,15.90
2017-08-11T00:28:54.144Z,16.80
2017-08-11T00:31:21.708Z,17.15
2017-08-11T00:33:49.225Z,17.25
2017-08-11T00:36:16.931Z,13.43
2017-08-11T00:38:44.440Z,14.63
2017-08-11T00:41:16.499Z,14.13
2017-08-11T00:43:44.570Z,13.27
2017-08-11T00:46:12.074Z,14.87
2017-08-11T00:48:40.355Z,15.32
2017-08-11T00:51:08.335Z,12.55
2017-08-11T00:53:36.223Z,15.75
2017-08-11T00:56:04.416Z,13.57
2017-08-11T00:58:35.461Z,15.80
2017-08-11T01:01:03.195Z,17.92
2017-08-11T01:03:30.715Z,13.10
2017-08-11T01:05:58.258Z,15.20
2017-08-11T01:08:25.799Z,15.70
2017-08-11T01:10:53.361Z,12.50
2017-08-11T01:13:21.124Z,19.15
2017-08-11T01:15:48.872Z,14.82
2017-08-11T01:18:16.645Z,17.62
2017-08-11T01:20:44.156Z,16.15
2017-08-11T01:23:12.463Z,14.95
2017-08-11T01:25:47.930Z,17.67
2017-08-11T01:28:15.435Z,25.65
2017-08-11T01:30:42.984Z,11.85
2017-08-11T01:33:10.932Z,11.55
2017-08-11T01:35:38.443Z,17.67
2017-08-11T01:38:06.129Z,15.50
2017-08-11T01:40:33.640Z,13.43
2017-08-11T01:43:01.220Z,19.92
2017-08-11T01:45:28.728Z,17.15
2017-08-11T01:47:56.239Z,13.88
2017-08-11T01:50:23.768Z,18.23
2017-08-11T01:52:51.275Z,17.35
2017-08-11T01:55:18.792Z,18.10
2017-08-11T01:57:46.403Z,18.35
2017-08-11T02:00:13.931Z,21.65
2017-08-11T02:02:41.639Z,20.98
2017-08-11T02:05:09.152Z,20.55
2017-08-11T02:07:37.428Z,20.37
2017-08-11T02:10:04.938Z,21.37
2017-08-11T02:12:35.427Z,22.05
2017-08-11T02:15:02.975Z,23.67
2017-08-11T02:17:30.486Z,23.12
2017-08-11T02:19:58.051Z,19.20
2017-08-11T02:22:25.587Z,22.52
2017-08-11T02:24:53.144Z,20.37
2017-08-11T02:27:20.659Z,19.48
2017-08-11T02:29:48.260Z,17.23
2017-08-11T02:32:15.967Z,19.48
2017-08-11T02:34:43.498Z,15.25
2017-08-11T02:37:11.242Z,17.05
2017-08-11T02:39:38.809Z,16.90
2017-08-11T02:42:10.494Z,18.23
2017-08-11T02:44:38.096Z,19.08
2017-08-11T02:47:05.892Z,17.05
2017-08-11T02:49:33.399Z,15.65
2017-08-11T02:52:00.951Z,17.35
2017-08-11T02:54:28.507Z,18.30
2017-08-11T02:56:56.011Z,18.37
2017-08-11T02:59:27.595Z,17.10
2017-08-11T03:01:55.589Z,18.25
2017-08-11T03:04:23.175Z,22.30
2017-08-11T03:06:50.723Z,20.27
2017-08-11T03:09:18.292Z,18.80
2017-08-11T03:11:46.081Z,19.48
2017-08-11T03:14:22.144Z,18.65
2017-08-11T03:16:49.913Z,17.75
2017-08-11T03:19:17.423Z,20.58
2017-08-11T03:21:45.752Z,21.15
2017-08-11T03:24:13.292Z,21.92
2017-08-11T03:26:40.844Z,17.70
2017-08-11T03:29:12.829Z,17.75
2017-08-11T03:31:40.360Z,17.35
2017-08-11T03:34:08.200Z,18.77
2017-08-11T03:36:35.738Z,20.48
2017-08-11T03:39:03.271Z,16.80
2017-08-11T03:41:30.798Z,20.15
2017-08-11T03:44:02.061Z,20.48
2017-08-11T03:46:29.579Z,20.05
2017-08-11T03:48:57.096Z,21.80
2017-08-11T03:51:24.667Z,16.70
2017-08-11T03:53:52.179Z,22.25
2017-08-11T03:56:19.685Z,20.42
2017-08-11T03:58:51.734Z,22.90
2017-08-11T04:01:19.376Z,24.58
2017-08-11T04:03:46.926Z,24.92
2017-08-11T04:06:14.434Z,20.37
2017-08-11T04:08:42.423Z,24.37
2017-08-11T04:11:10.261Z,26.10
2017-08-11T04:13:40.738Z,25.90
2017-08-11T04:16:08.535Z,25.80
2017-08-11T04:18:36.251Z,25.25
2017-08-11T04:21:04.062Z,24.98
2017-08-11T04:23:31.624Z,24.35
2017-08-11T04:25:59.163Z,31.67
2017-08-11T04:28:30.432Z,23.60
2017-08-11T04:30:57.943Z,23.90
2017-08-11T04:33:26.251Z,21.52
2017-08-11T04:35:53.799Z,26.60
2017-08-11T04:38:21.478Z,22.67
2017-08-11T04:40:49.062Z,22.87
2017-08-11T04:43:16.576Z,21.37
2017-08-11T04:45:47.853Z,21.40
2017-08-11T04:48:15.355Z,22.98
2017-08-11T04:50:43.371Z,22.90
2017-08-11T04:53:11.059Z,23.62
2017-08-11T04:55:38.571Z,23.27
2017-08-11T04:58:06.074Z,27.52
2017-08-11T05:00:33.632Z,24.45
2017-08-11T05:03:01.280Z,23.75
2017-08-11T05:05:28.828Z,21.83
2017-08-11T05:07:56.516Z,24.15
2017-08-11T05:10:24.031Z,23.45
2017-08-11T05:12:51.728Z,18.90
2017-08-11T05:15:19.623Z,26.70
2017-08-11T05:17:47.198Z,25.27
2017-08-11T05:20:14.765Z,20.60
2017-08-11T05:22:43.069Z,22.25
2017-08-11T05:25:10.587Z,22.33
2017-08-11T05:27:38.148Z,20.35
2017-08-11T05:30:05.653Z,25.95
2017-08-11T05:32:33.203Z,21.75
2017-08-11T05:35:00.760Z,23.60
2017-08-11T05:37:28.323Z,26.98
2017-08-11T05:39:55.859Z,25.33
2017-08-11T05:42:23.608Z,25.00
2017-08-11T05:44:59.999Z,24.42
2017-08-11T05:47:27.507Z,24.58
2017-08-11T05:49:55.019Z,33.72
2017-08-11T05:52:22.719Z,30.37
2017-08-11T05:54:50.508Z,28.73
2017-08-11T05:57:18.835Z,35.30
2017-08-11T05:59:46.381Z,28.60
2017-08-11T06:02:13.927Z,24.80
2017-08-11T06:04:41.444Z,29.23
2017-08-11T06:07:09.014Z,26.60
2017-08-11T06:09:36.524Z,25.12
2017-08-11T06:12:04.051Z,27.27
2017-08-11T06:14:31.601Z,27.37
2017-08-11T06:17:03.745Z,27.50
2017-08-11T06:19:31.262Z,29.77
2017-08-11T06:21:58.803Z,34.83
2017-08-11T06:24:26.324Z,32.17
2017-08-11T06:26:53.887Z,29.20
2017-08-11T06:29:21.500Z,30.75
2017-08-11T06:31:49.004Z,31.17
2017-08-11T06:34:22.996Z,31.45
2017-08-11T06:36:50.507Z,31.92
2017-08-11T06:39:19.183Z,31.83
2017-08-11T06:41:46.683Z,31.27
2017-08-11T06:44:14.273Z,41.65
2017-08-11T06:46:45.107Z,33.95
2017-08-11T06:49:12.622Z,41.08
2017-08-11T06:51:40.128Z,34.22
2017-08-11T06:54:07.766Z,30.12
2017-08-11T06:56:35.268Z,32.47
2017-08-11T06:59:02.852Z,30.20
2017-08-11T07:01:34.933Z,29.63
2017-08-11T07:04:06.309Z,30.90
2017-08-11T07:06:33.820Z,30.02
2017-08-11T07:09:02.175Z,32.28
2017-08-11T07:11:29.675Z,28.80
2017-08-11T07:13:57.198Z,24.30
2017-08-11T07:16:28.220Z,26.98
2017-08-11T07:18:55.816Z,31.50
2017-08-11T07:21:23.893Z,30.05
2017-08-11T07:23:51.394Z,33.65
2017-08-11T07:26:18.944Z,34.20
2017-08-11T07:28:46.513Z,33.67
2017-08-11T07:31:14.034Z,34.22
2017-08-11T07:33:49.145Z,29.45
2017-08-11T07:36:16.660Z,34.83
2017-08-11T07:38:44.467Z,33.88
2017-08-11T07:41:11.985Z,30.12
2017-08-11T07:43:39.495Z,26.95
2017-08-11T07:46:07.814Z,30.62
2017-08-11T07:48:35.326Z,30.62
2017-08-11T07:51:02.984Z,30.75
2017-08-11T07:53:30.563Z,32.25
2017-08-11T07:55:58.977Z,38.33
2017-08-11T07:58:27.440Z,29.05
2017-08-11T08:00:55.011Z,26.52
2017-08-11T08:03:26.961Z,31.98
2017-08-11T08:05:54.504Z,26.30
2017-08-11T08:08:22.093Z,28.52
2017-08-11T08:10:49.610Z,29.08
2017-08-11T08:13:17.121Z,27.55
2017-08-11T08:15:44.675Z,26.67
2017-08-11T08:18:12.425Z,29.30
2017-08-11T08:20:39.992Z,28.33
2017-08-11T08:23:07.955Z,26.42
2017-08-11T08:25:35.468Z,26.83
2017-08-11T08:28:03.108Z,26.65
2017-08-11T08:30:30.638Z,22.62
2017-08-11T08:32:58.420Z,20.95
2017-08-11T08:35:26.451Z,25.87
2017-08-11T08:37:54.012Z,18.55
2017-08-11T08:40:22.011Z,22.13
2017-08-11T08:42:49.569Z,18.33
2017-08-11T08:45:17.114Z,19.35
2017-08-11T08:47:44.691Z,16.77
2017-08-11T08:50:12.231Z,16.67
2017-08-11T08:52:39.779Z,17.48
2017-08-11T08:55:07.344Z,17.90
2017-08-11T08:57:34.903Z,18.65
2017-08-11T09:00:02.463Z,16.73
2017-08-11T09:02:29.979Z,16.60
2017-08-11T09:05:01.268Z,16.52
2017-08-11T09:07:29.076Z,21.48
2017-08-11T09:09:56.703Z,15.00
2017-08-11T09:12:24.239Z,12.90
2017-08-11T09:14:52.038Z,18.30
2017-08-11T09:17:19.597Z,16.27
2017-08-11T09:19:47.461Z,17.40
2017-08-11T09:22:15.007Z,15.55
2017-08-11T09:24:54.294Z,19.08
2017-08-11T09:27:33.823Z,16.53
2017-08-11T09:30:13.367Z,14.17
2017-08-11T09:32:52.520Z,17.60
2017-08-11T09:35:33.346Z,14.07
2017-08-11T09:38:00.921Z,19.90
2017-08-11T09:40:28.464Z,13.90
2017-08-11T09:42:56.027Z,14.35
2017-08-11T09:45:23.576Z,12.48
2017-08-11T09:47:51.208Z,11.20
2017-08-11T09:50:18.725Z,14.48
2017-08-11T09:52:46.220Z,11.68
2017-08-11T09:55:13.912Z,16.83
2017-08-11T09:57:41.931Z,11.50
2017-08-11T10:00:09.443Z,13.15
2017-08-11T10:02:37.121Z,10.75
2017-08-11T10:05:04.662Z,11.15
2017-08-11T10:07:32.227Z,10.63
2017-08-11T10:09:59.772Z,11.45
2017-08-11T10:12:27.332Z,11.02
2017-08-11T10:14:54.844Z,9.55
2017-08-11T10:17:22.411Z,8.65
2017-08-11T10:19:49.942Z,7.90
2017-08-11T10:22:17.484Z,12.15
2017-08-11T10:24:45.251Z,13.20
2017-08-11T10:27:13.007Z,9.48
2017-08-11T10:29:40.509Z,14.25
2017-08-11T10:32:08.043Z,11.02
2017-08-11T10:34:35.550Z,10.60
2017-08-11T10:37:03.124Z,10.73
2017-08-11T10:39:30.880Z,10.23
2017-08-11T10:41:58.655Z,11.38
2017-08-11T10:44:26.430Z,11.70
2017-08-11T10:46:53.940Z,11.38
2017-08-11T10:49:21.499Z,16.25
2017-08-11T10:51:49.019Z,18.10
2017-08-11T10:54:16.541Z,18.52
2017-08-11T10:56:44.062Z,13.68
2017-08-11T10:59:11.639Z,18.50
2017-08-11T11:01:39.145Z,15.27
2017-08-11T11:04:06.666Z,15.02
2017-08-11T11:06:34.400Z,11.17
2017-08-11T11:09:02.188Z,13.82
2017-08-11T11:11:29.994Z,17.70
2017-08-11T11:13:58.049Z,15.25
2017-08-11T11:16:25.600Z,16.02
2017-08-11T11:18:53.608Z,16.17
2017-08-11T11:21:21.128Z,13.62
2017-08-11T11:23:48.670Z,18.73
2017-08-11T11:26:16.196Z,18.73
2017-08-11T11:28:43.752Z,13.60
2017-08-11T11:31:11.263Z,16.27
2017-08-11T11:33:39.185Z,14.73
2017-08-11T11:36:06.695Z,15.57
2017-08-11T11:38:34.274Z,17.25
2017-08-11T11:41:01.959Z,14.55
2017-08-11T11:43:29.484Z,14.00
2017-08-11T11:45:57.021Z,15.10
2017-08-11T11:48:24.640Z,12.48
2017-08-11T11:50:52.198Z,17.10
2017-08-11T11:53:19.840Z,14.45
2017-08-11T11:55:47.403Z,16.02
2017-08-11T11:58:14.968Z,15.40
2017-08-11T12:00:42.520Z,18.05
2017-08-11T12:03:10.299Z,18.73
2017-08-11T12:05:37.842Z,17.75
2017-08-11T12:08:09.269Z,15.18
2017-08-11T12:10:37.204Z,13.00
2017-08-11T12:13:04.718Z,13.68
2017-08-11T12:15:32.503Z,14.60
2017-08-11T12:18:00.026Z,15.85
2017-08-11T12:20:27.808Z,12.80
2017-08-11T12:22:55.719Z,16.00
2017-08-11T12:25:26.890Z,14.93
2017-08-11T12:27:54.412Z,15.97
2017-08-11T12:30:21.957Z,17.20
2017-08-11T12:32:49.468Z,17.85
2017-08-11T12:35:17.004Z,14.90
2017-08-11T12:37:51.888Z,15.23
2017-08-11T12:40:19.412Z,18.58
2017-08-11T12:42:47.087Z,16.75
2017-08-11T12:45:14.619Z,15.10
2017-08-11T12:47:43.091Z,14.52
2017-08-11T12:50:10.963Z,17.00
2017-08-11T12:52:41.533Z,18.90
2017-08-11T12:55:09.132Z,15.00
2017-08-11T12:57:37.111Z,13.27
2017-08-11T13:00:04.620Z,14.13
2017-08-11T13:02:32.276Z,17.60
2017-08-11T13:04:59.805Z,18.08
2017-08-11T13:07:31.491Z,13.32
2017-08-11T13:10:06.680Z,17.12
2017-08-11T13:12:34.650Z,13.62
2017-08-11T13:15:02.447Z,16.45
2017-08-11T13:17:29.979Z,15.93
2017-08-11T13:19:58.284Z,21.80
2017-08-11T13:22:25.813Z,14.80
2017-08-11T13:24:53.779Z,16.80
2017-08-11T13:27:21.405Z,16.35
2017-08-11T13:29:48.990Z,15.93
2017-08-11T13:32:17.407Z,16.62
2017-08-11T13:34:44.907Z,17.73
2017-08-11T13:37:12.568Z,23.12
2017-08-11T13:39:40.128Z,28.85
2017-08-11T13:42:07.868Z,17.65
2017-08-11T13:44:35.645Z,22.05
2017-08-11T13:47:03.270Z,21.50
2017-08-11T13:49:30.851Z,17.90
2017-08-11T13:51:58.548Z,21.52
2017-08-11T13:54:26.061Z,21.02
2017-08-11T13:56:53.610Z,18.08
2017-08-11T13:59:21.924Z,22.40
2017-08-11T14:01:49.440Z,24.33
2017-08-11T14:04:17.757Z,21.65
2017-08-11T14:06:45.288Z,40.83
2017-08-11T14:09:14.547Z,26.08
2017-08-11T14:11:42.070Z,23.85
2017-08-11T14:14:09.698Z,18.70
2017-08-11T14:16:37.208Z,16.50
2017-08-11T14:19:04.772Z,21.37
2017-08-11T14:21:32.324Z,17.70
2017-08-11T14:24:16.504Z,23.67
2017-08-11T14:26:44.231Z,17.48
2017-08-11T14:29:11.772Z,17.90
2017-08-11T14:31:39.287Z,21.50
2017-08-11T14:34:06.803Z,17.60
2017-08-11T14:36:34.344Z,19.33
2017-08-11T14:39:01.915Z,23.87
2017-08-11T14:41:29.445Z,24.02
2017-08-11T14:43:56.955Z,20.17
2017-08-11T14:46:24.461Z,19.42
2017-08-11T14:48:51.971Z,25.08
2017-08-11T14:51:19.479Z,21.02
2017-08-11T14:53:48.199Z,20.37
2017-08-11T14:56:15.772Z,17.77
2017-08-11T14:58:43.288Z,19.70
2017-08-11T15:01:10.836Z,19.60
2017-08-11T15:03:39.139Z,24.80
2017-08-11T15:06:06.656Z,19.73
2017-08-11T15:08:35.015Z,19.95
2017-08-11T15:11:02.816Z,27.83
2017-08-11T15:13:31.109Z,20.00
2017-08-11T15:15:58.640Z,22.00
2017-08-11T15:18:26.907Z,17.50
2017-08-11T15:20:54.446Z,16.65
2017-08-11T15:23:21.983Z,16.42
2017-08-11T15:25:50.258Z,14.55
2017-08-11T15:28:17.776Z,16.48
2017-08-11T15:30:46.092Z,18.15
2017-08-11T15:33:13.620Z,17.67
2017-08-11T15:35:41.894Z,17.70
2017-08-11T15:38:09.719Z,18.85
2017-08-11T15:40:37.223Z,19.25
2017-08-11T15:43:04.785Z,19.90
2017-08-11T15:45:32.335Z,16.75
2017-08-11T15:48:00.035Z,17.48
2017-08-11T15:50:27.551Z,16.87
2017-08-11T15:52:55.095Z,20.88
2017-08-11T15:55:25.315Z,17.15
2017-08-11T15:57:53.140Z,19.23
2017-08-11T16:00:21.053Z,15.55
2017-08-11T16:02:48.567Z,15.50
2017-08-11T16:05:16.126Z,17.52
2017-08-11T16:07:43.700Z,17.02
2017-08-11T16:10:11.244Z,14.27
2017-08-11T16:12:42.989Z,18.42
2017-08-11T16:15:10.506Z,15.65
2017-08-11T16:17:38.822Z,13.85
2017-08-11T16:20:06.484Z,16.75
2017-08-11T16:22:34.057Z,13.93
2017-08-11T16:25:01.589Z,17.95
2017-08-11T16:27:32.227Z,14.32
2017-08-11T16:29:59.780Z,19.10
2017-08-11T16:32:27.291Z,15.70
2017-08-11T16:34:54.826Z,11.25
2017-08-11T16:37:22.586Z,11.63
2017-08-11T16:39:50.088Z,15.10
2017-08-11T16:42:17.972Z,17.40
2017-08-11T16:44:45.543Z,16.90
2017-08-11T16:47:13.044Z,12.25
2017-08-11T16:49:40.583Z,12.35
2017-08-11T16:52:08.142Z,9.75
2017-08-11T16:54:35.681Z,12.37
2017-08-11T16:57:03.741Z,12.27
2017-08-11T16:59:32.016Z,9.65
2017-08-11T17:01:59.714Z,8.73
2017-08-11T17:04:27.276Z,8.68
2017-08-11T17:06:54.820Z,10.45
2017-08-11T17:09:22.475Z,7.55
2017-08-11T17:11:50.303Z,8.20
2017-08-11T17:14:17.853Z,10.13
2017-08-11T17:16:45.368Z,8.75
2017-08-11T17:19:12.927Z,8.45
2017-08-11T17:21:40.691Z,6.65
2017-08-11T17:24:08.258Z,9.88
2017-08-11T17:26:35.860Z,7.12
2017-08-11T17:29:03.421Z,12.77
2017-08-11T17:31:30.929Z,12.00
2017-08-11T17:33:58.487Z,8.77
2017-08-11T17:36:26.055Z,9.13
2017-08-11T17:38:53.627Z,8.07
2017-08-11T17:41:21.187Z,7.12
2017-08-11T17:43:52.781Z,7.30
2017-08-11T17:46:21.152Z,6.47
2017-08-11T17:48:48.787Z,7.40
2017-08-11T17:51:16.298Z,5.87
2017-08-11T17:53:43.816Z,13.15
2017-08-11T17:56:11.314Z,3.95
2017-08-11T17:58:38.844Z,4.57
2017-08-11T18:01:06.387Z,3.95
2017-08-11T18:03:33.891Z,4.75
2017-08-11T18:06:01.431Z,9.20
2017-08-11T18:08:29.759Z,5.97
2017-08-11T18:10:57.264Z,8.70
2017-08-11T18:13:28.049Z,9.57
2017-08-11T18:15:55.554Z,4.65
2017-08-11T18:18:23.259Z,4.50
2017-08-11T18:20:51.639Z,4.70
2017-08-11T18:23:19.200Z,4.03
2017-08-11T18:25:46.707Z,5.28
2017-08-11T18:28:14.323Z,6.93
2017-08-11T18:30:44.634Z,4.78
2017-08-11T18:33:12.164Z,3.95
2017-08-11T18:35:39.679Z,2.67
2017-08-11T18:38:07.216Z,3.72
2017-08-11T18:40:34.912Z,2.65
2017-08-11T18:43:06.811Z,3.10
2017-08-11T18:45:38.305Z,2.60
2017-08-11T18:48:06.219Z,11.12
2017-08-11T18:50:33.773Z,6.45
2017-08-11T18:53:01.276Z,2.12
2017-08-11T18:55:28.781Z,3.65
2017-08-11T18:58:00.562Z,2.90
2017-08-11T19:00:28.491Z,2.35
2017-08-11T19:02:55.997Z,1.70
2017-08-11T19:05:24.276Z,1.40
2017-08-11T19:07:51.796Z,1.83
2017-08-11T19:10:19.351Z,1.80
2017-08-11T19:12:46.887Z,1.75
2017-08-11T19:15:14.391Z,3.05
2017-08-11T19:17:41.950Z,4.60
2017-08-11T19:20:09.456Z,3.67
2017-08-11T19:22:37.122Z,3.37
2017-08-11T19:25:04.619Z,7.95
2017-08-11T19:27:32.367Z,4.43
2017-08-11T19:29:59.908Z,3.67
2017-08-11T19:32:27.404Z,2.40
2017-08-11T19:34:54.992Z,2.45
2017-08-11T19:37:22.491Z,2.45
2017-08-11T19:39:50.022Z,3.25
2017-08-11T19:42:18.507Z,3.83
2017-08-11T19:44:49.344Z,4.72
2017-08-11T19:47:16.964Z,2.45
2017-08-11T19:49:45.415Z,3.50
2017-08-11T19:52:13.170Z,2.95
2017-08-11T19:54:40.676Z,2.37
2017-08-11T19:57:08.197Z,6.15
2017-08-11T19:59:42.821Z,4.20
2017-08-11T20:02:10.324Z,2.83
2017-08-11T20:04:38.274Z,1.83
2017-08-11T20:07:05.784Z,1.62
2017-08-11T20:09:33.315Z,1.58
2017-08-11T20:12:00.859Z,1.92
2017-08-11T20:14:28.451Z,2.60
2017-08-11T20:17:00.528Z,12.10
2017-08-11T20:19:28.034Z,1.30
2017-08-11T20:21:55.539Z,1.43
2017-08-11T20:24:23.108Z,2.90
2017-08-11T20:26:50.604Z,1.80
2017-08-11T20:29:18.132Z,1.70
2017-08-11T20:31:45.887Z,1.80
2017-08-11T20:34:13.481Z,1.20
2017-08-11T20:36:40.979Z,2.28
2017-08-11T20:39:08.494Z,1.85
2017-08-11T20:41:36.034Z,1.60
2017-08-11T20:44:03.700Z,1.40
2017-08-11T20:46:31.256Z,1.90
2017-08-11T20:49:06.182Z,1.55
2017-08-11T20:51:33.735Z,2.17
2017-08-11T20:54:01.271Z,2.22
2017-08-11T20:56:28.789Z,2.55
2017-08-11T20:58:56.320Z,1.77
2017-08-11T21:01:24.039Z,2.33
2017-08-11T21:03:51.648Z,2.97
2017-08-11T21:06:19.145Z,2.65
2017-08-11T21:08:46.694Z,3.40
2017-08-11T21:11:14.269Z,2.50
2017-08-11T21:13:41.864Z,3.37
2017-08-11T21:16:09.395Z,3.97
2017-08-11T21:18:41.379Z,3.87
2017-08-11T21:21:08.922Z,4.07
2017-08-11T21:23:36.868Z,4.45
2017-08-11T21:26:04.685Z,3.83
2017-08-11T21:28:32.184Z,2.92
2017-08-11T21:30:59.715Z,3.67
2017-08-11T21:33:28.386Z,3.97
2017-08-11T21:35:59.452Z,2.45
2017-08-11T21:38:26.964Z,3.78
2017-08-11T21:40:54.908Z,4.12
2017-08-11T21:43:22.423Z,2.97
2017-08-11T21:45:59.927Z,3.47
2017-08-11T21:48:27.427Z,3.35
2017-08-11T21:50:54.965Z,3.40
2017-08-11T21:53:22.624Z,4.15
2017-08-11T21:55:50.134Z,4.10
2017-08-11T21:58:17.871Z,5.25
2017-08-11T22:00:45.384Z,4.62
2017-08-11T22:03:13.387Z,5.45
2017-08-11T22:05:41.188Z,5.95
2017-08-11T22:08:08.708Z,4.43
2017-08-11T22:10:37.030Z,5.18
2017-08-11T22:13:05.672Z,5.07
2017-08-11T22:15:33.185Z,6.85
2017-08-11T22:18:00.683Z,5.70
2017-08-11T22:20:28.958Z,5.72
2017-08-11T22:22:56.456Z,12.25
2017-08-11T22:25:23.951Z,5.87
2017-08-11T22:27:51.940Z,7.47
2017-08-11T22:30:20.270Z,9.10
2017-08-11T22:32:47.784Z,7.07
2017-08-11T22:35:15.291Z,8.43
2017-08-11T22:37:42.794Z,7.97
2017-08-11T22:40:10.412Z,8.23
2017-08-11T22:42:37.931Z,8.77
2017-08-11T22:45:05.459Z,9.02
2017-08-11T22:47:37.500Z,8.00
2017-08-11T22:50:05.046Z,9.05
2017-08-11T22:52:32.575Z,8.07
2017-08-11T22:55:00.083Z,11.75
2017-08-11T22:57:27.892Z,8.60
2017-08-11T22:59:55.800Z,6.47
2017-08-11T23:02:23.303Z,10.07
2017-08-11T23:04:50.832Z,7.90
2017-08-11T23:07:18.654Z,10.95
2017-08-11T23:09:46.151Z,9.60
2017-08-11T23:12:13.716Z,8.32
2017-08-11T23:14:41.283Z,7.57
2017-08-11T23:17:08.925Z,11.27
2017-08-11T23:19:40.588Z,9.73
2017-08-11T23:22:09.436Z,12.95
2017-08-11T23:24:37.278Z,9.85
2017-08-11T23:27:04.798Z,14.45
2017-08-11T23:29:32.296Z,13.82
2017-08-11T23:32:00.597Z,14.60
2017-08-11T23:34:29.875Z,12.30
2017-08-11T23:36:57.484Z,11.63
2017-08-11T23:39:24.991Z,14.65
2017-08-11T23:41:52.487Z,13.20
2017-08-11T23:44:19.994Z,14.57
2017-08-11T23:46:47.500Z,14.40
2017-08-11T23:49:17.244Z,14.52
2017-08-11T23:51:52.568Z,14.15
2017-08-11T23:54:20.124Z,11.73
2017-08-11T23:56:47.789Z,18.70
2017-08-11T23:59:15.344Z,13.98
